Station: Gove Airport

  Atmospheric Gas Attenuation - ITU Rec 676-11   --------------- db/100km ---------------
Date Time Temp RH % AH g/m3 Dew Point Wind Direction Speed kph Gust kph Barometer mB Rainfall Since 9am 24GHz 47GHz 76GHz 122GHz 134GHz 241GHz
11 23:00 26.6 83 20.89 23.5 7 9 1011.5 0 44.8 42.8 84.4 223.4 248.9 865.0
11 22:50 26.6 83 20.89 23.5 9 9 1011.6 0 44.8 42.8 84.4 223.5 249.0 865.0
11 22:40 26.8 83 21.13 23.7 7 9 1011.5 0 45.3 43.2 85.4 225.9 252.1 875.8
11 22:30 27 83 21.36 23.9 7 9 1011.6 0 45.8 43.5 86.3 228.3 255.0 886.2
11 22:20 26.9 83 21.24 23.8 6 6 1011.7 0 45.5 43.3 85.8 227.1 253.5 880.8
11 22:10 26.9 83 21.24 23.8 6 7 1011.7 0 45.5 43.3 85.8 227.1 253.5 880.8
11 22:00 26.8 82 20.87 23.5 6 7 1011.8 0 44.7 42.7 84.1 222.6 248.0 861.7
11 21:50 26.8 83 21.13 23.7 6 7 1011.7 0 45.3 43.2 85.4 226.0 252.1 876.0
11 21:40 26.8 83 21.13 23.7 7 9 1011.6 0 45.3 43.2 85.4 226.0 252.1 875.9
11 21:30 27 82 21.1 23.7 7 9 1011.5 0 45.2 43.0 85.0 225.0 250.9 871.9
11 21:20 27.2 81 21.08 23.7 6 7 1011.5 0 45.1 42.9 84.7 224.1 249.9 868.5
11 21:10 27.4 81 21.31 23.8 7 7 1011.4 0 45.6 43.2 85.5 226.4 252.8 878.7
11 21:00 27.5 79 20.9 23.5 6 9 1011.1 0 44.7 42.3 83.4 220.9 246.0 855.0
11 20:50 27.6 80 21.28 23.8 6 6 1011 0 45.5 43.0 85.1 225.4 251.6 874.5
11 20:40 27.5 80 21.17 23.7 9 11 1010.9 0 45.3 42.9 84.7 224.3 250.2 869.6
11 20:30 27.4 80 21.05 23.6 7 11 1010.8 0 45.1 42.7 84.2 223.0 248.7 864.1
11 20:20 27.3 81 21.2 23.7 7 9 1010.7 0 45.4 43.0 85.1 225.2 251.3 873.4
11 20:10 27.2 81 21.08 23.7 7 9 1010.6 0 45.1 42.8 84.6 224.0 249.8 867.9
11 20:00 27.3 80 20.93 23.5 9 11 1010.4 0 44.8 42.5 83.8 221.7 247.0 858.5
11 19:50 27.4 79 20.79 23.4 9 11 1010.4 0 44.5 42.1 83.0 219.6 244.5 849.8
11 19:40 27.7 79 21.13 23.7 9 9 1010.3 0 45.2 42.6 84.3 223.1 248.8 864.7
11 19:30 27.6 78 20.75 23.4 9 11 1010.2 0 44.4 42.0 82.5 218.5 243.2 845.2
11 19:20 27.8 78 20.98 23.6 9 11 1010 0 44.9 42.3 83.4 220.8 246.1 855.3
11 19:10 27.8 78 20.98 23.6 7 9 1009.9 0 44.9 42.3 83.4 220.8 246.1 855.2
11 19:00 28 78 21.21 23.8 9 11 1009.7 0 45.3 42.6 84.3 223.1 249.0 865.3
11 18:50 28.1 77 21.06 23.7 9 9 1009.7 0 45.0 42.3 83.4 220.9 246.3 856.0
11 18:40 28.2 78 21.45 24 9 11 1009.6 0 45.8 43.0 85.2 225.5 252.0 875.9
11 18:30 28.4 77 21.41 24 9 15 1009.5 0 45.7 42.8 84.8 224.4 250.7 871.4
11 18:20 28.6 75 21.08 23.7 11 13 1009.4 0 45.0 42.0 83.0 219.6 244.9 851.3
11 18:10 28.7 74 20.91 23.6 13 17 1009.4 0 44.6 41.7 82.1 217.2 242.0 841.1
11 18:00 28.8 74 21.03 23.7 11 15 1009.3 0 44.9 41.8 82.5 218.4 243.5 846.3
11 17:50 29 73 20.97 23.7 11 13 1009.4 0 44.7 41.6 82.0 217.1 241.9 840.9
11 17:40 29 72 20.68 23.4 13 15 1009.2 0 44.1 41.1 80.6 213.5 237.5 825.5
11 17:30 29.2 71 20.62 23.4 13 17 1009.1 0 44.0 40.9 80.1 212.2 235.9 820.1
11 17:20 29.4 69 20.26 23.1 13 15 1009.1 0 43.2 40.1 78.3 207.2 229.9 799.2
11 17:10 29.5 68 20.07 23 11 13 1008.9 0 42.8 39.7 77.3 204.6 226.7 788.2
11 17:00 29.6 66 19.59 22.6 13 17 1008.9 0 41.7 38.8 75.0 198.6 219.4 762.6
11 16:50 30 65 19.71 22.7 17 19 1008.8 0 42.0 38.8 75.2 199.0 220.0 764.7
11 16:40 30 65 19.71 22.7 15 15 1008.7 0 42.0 38.8 75.2 198.9 219.9 764.6
11 16:30 30.5 63 19.63 22.7 15 20 1008.5 0 41.7 38.4 74.3 196.7 217.3 755.5
11 16:20 31.1 60 19.31 22.4 15 19 1008.6 0 41.0 37.6 72.3 191.5 211.0 733.8
11 16:10 31.2 60 19.41 22.5 15 19 1008.6 0 41.2 37.7 72.7 192.4 212.2 737.8
11 16:00 31.4 66 21.59 24.3 17 20 1008.6 0 45.7 41.6 82.2 217.8 243.4 846.4
11 15:50 31 63 20.17 23.1 11 15 1008.7 0 42.8 39.2 76.2 201.8 223.7 777.9
11 15:40 31.4 61 19.95 23.2 22 26 1008.5 0 42.3 38.6 74.8 198.1 219.3 762.7
11 15:30 31.1 62 19.95 23 19 24 1008.3 0 42.3 38.7 75.1 198.9 220.2 765.5
11 15:20 31.2 61 19.74 23 15 20 1008.3 0 41.9 38.3 74.1 196.2 216.9 754.0
11 15:10 31.9 60 20.15 23.2 15 19 1008.3 0 42.7 38.7 75.2 199.2 220.7 767.6
11 15:00 31.5 57 18.74 22.2 15 20 1008.4 0 39.8 36.4 69.5 183.9 201.9 702.0
11 14:50 31.3 58 18.87 22.3 13 17 1008.4 0 40.1 36.7 70.2 185.9 204.2 710.2
11 14:40 32.1 63 21.39 24.2 15 22 1008.4 0 45.2 40.8 80.6 213.3 238.2 828.3
11 14:30 32 63 21.27 24.1 17 22 1008.5 0 45.0 40.7 80.1 212.2 236.7 823.3
11 14:20 31.6 61 20.16 23.4 15 19 1008.6 0 42.7 38.9 75.6 200.1 221.8 771.2
11 14:10 31.9 62 20.83 23.7 9 13 1008.7 0 44.1 39.9 78.3 207.2 230.6 802.0
11 14:00 32 59 19.92 23 13 28 1008.8 0 42.2 38.3 74.2 196.3 217.2 755.4
11 13:50 31.8 58 19.38 22.5 15 20 1008.8 0 41.1 37.4 72.0 190.6 210.1 730.7
11 13:40 32 58 19.59 22.7 17 20 1008.9 0 41.5 37.7 72.7 192.5 212.5 739.1
11 13:30 31.8 56 18.71 22.2 13 20 1009 0 39.7 36.3 69.1 183.0 200.8 698.1
11 13:20 32.5 61 21.15 24 13 17 1009.1 0 44.7 40.3 79.1 209.5 233.5 812.2
11 13:10 31.6 63 20.83 23.7 13 19 1009.2 0 44.1 40.1 78.6 208.1 231.6 805.4
11 13:00 32 60 20.26 23.5 17 24 1009.3 0 42.9 38.9 75.7 200.3 222.2 772.6
11 12:48 32.3 62 21.27 24.3 17 20 1009.4 0 45.0 40.6 79.9 211.5 235.9 820.6
11 12:40 31.7 65 21.6 24.3 15 22 1009.5 0 45.7 41.5 82.0 217.2 242.7 844.1
11 12:30 31.5 63 20.71 23.6 17 28 1009.7 0 43.9 40.0 78.2 207.0 230.2 800.6
11 12:20 31.7 63 20.94 24 17 19 1009.8 0 44.3 40.3 79.0 209.3 233.0 810.3
11 12:10 31.8 60 20.05 23.3 11 13 1009.9 0 42.5 38.6 75.0 198.5 219.8 764.4
11 12:00 31.9 60 20.15 23.4 13 19 1010.1 0 42.7 38.8 75.3 199.4 221.0 768.5
11 11:50 32.5 62 21.5 24.5 13 17 1010.2 0 45.4 40.9 80.7 213.8 238.8 830.6
11 11:40 32.2 62 21.16 24 15 17 1010.3 0 44.7 40.5 79.5 210.6 234.8 816.5
11 11:30 31.9 59 19.82 22.9 11 17 1010.4 0 42.0 38.2 73.9 195.6 216.3 752.2
11 11:20 31.5 63 20.71 23.6 7 9 1010.6 0 43.9 40.0 78.3 207.2 230.4 801.1
11 11:10 31.8 62 20.72 23.6 6 7 1010.8 0 43.9 39.9 78.0 206.5 229.6 798.6
11 11:00 31.6 60 19.83 22.9 9 13 1010.8 0 42.0 38.4 74.3 196.6 217.4 755.9
11 10:50 31.3 58 18.87 22.3 13 13 1010.9 0 40.1 36.8 70.4 186.2 204.6 711.4
11 10:40 31.4 64 20.93 23.8 11 15 1010.9 0 44.3 40.5 79.4 210.1 234.0 813.6
11 10:30 31.4 65 21.26 24 13 17 1010.9 0 45.0 41.1 80.9 214.1 238.9 830.6
11 10:20 31.2 68 22 24.6 13 15 1011 0 46.6 42.5 84.5 223.8 250.6 871.5
11 10:10 30.8 67 21.22 24 13 13 1011 0 45.0 41.3 81.3 215.3 240.2 835.1
11 10:00 30.5 68 21.19 23.9 17 22 1011 0 45.0 41.4 81.5 215.8 240.7 836.9
11 09:50 30.2 70 21.46 24.1 11 13 1011.1 0 45.6 42.0 83.1 220.0 245.8 854.4
11 09:40 30.4 73 22.63 25 15 19 1011.1 0 48.0 44.1 88.4 234.1 263.1 914.6
11 09:30 29.9 72 21.72 24.3 17 22 1011.1 0 46.2 42.7 84.7 224.1 250.7 871.7
11 09:20 30.1 72 21.96 24.5 15 17 1011.1 0 46.7 43.0 85.6 226.6 253.7 882.2
11 09:10 30 72 21.84 24.4 17 19 1011.1 0 46.4 42.8 85.1 225.3 252.2 876.9
11 09:00 29.6 73 21.67 24.2 15 20 1011.1 0 46.1 42.7 84.8 224.4 251.0 872.4
11 08:50 29.6 73 21.67 24.2 13 15 1011 0 46.1 42.7 84.7 224.4 250.9 872.4
11 08:40 29.9 73 22.02 24.5 11 15 1011 0 46.8 43.2 86.1 227.9 255.3 887.7
11 08:30 29.8 78 23.4 25.5 7 11 1011 0 49.7 46.0 92.8 245.9 277.4 964.3
11 08:20 28.9 78 22.29 24.7 7 9 1010.9 0 47.5 44.3 88.5 234.4 263.0 914.2
11 08:10 28.6 80 22.49 24.8 7 9 1010.8 0 48.0 44.8 89.8 237.9 267.2 928.9
11 08:00 28.2 82 22.55 24.8 7 11 1010.8 0 48.1 45.2 90.6 239.9 269.7 937.2
11 07:50 27.7 83 22.2 24.5 7 9 1010.8 0 47.5 44.8 89.5 237.0 265.9 923.9
11 07:40 27.3 85 22.24 24.6 7 7 1010.7 0 47.6 45.0 90.2 238.7 267.9 931.0
11 07:30 26.9 86 22.01 24.4 7 9 1010.7 0 47.2 44.8 89.5 237.0 265.7 923.1
11 07:20 26.7 88 22.28 24.5 0 0 1010.7 0 47.8 45.5 91.1 241.2 270.8 940.8
11 07:10 26.5 87 21.78 24.2 6 6 1010.7 0 46.7 44.6 88.8 235.2 263.4 915.1
11 07:00 26.5 88 22.03 24.3 6 9 1010.5 0 47.3 45.1 90.1 238.5 267.4 929.0
11 06:50 26.5 89 22.28 24.5 9 9 1010.3 0 47.8 45.5 91.3 241.8 271.4 943.1
11 06:40 26.3 89 22.03 24.3 4 7 1010.2 0 47.3 45.2 90.3 239.1 268.1 931.4
11 06:30 26.4 89 22.16 24.4 4 7 1010.1 0 47.5 45.4 90.8 240.5 269.8 937.4

Last Refresh: 11-Apr-2021 23:15:04

Bureau of Meteorology